sensor_id;sensor_type;location;lat;lon;timestamp;temperature;humidity
51637;DHT22;37713;53.254;6.460;2022-09-09T00:01:10;14.30;99.90
51637;DHT22;37713;53.254;6.460;2022-09-09T00:03:47;14.20;99.90
51637;DHT22;37713;53.254;6.460;2022-09-09T00:06:29;14.20;99.90
51637;DHT22;37713;53.254;6.460;2022-09-09T00:09:12;14.30;99.90
51637;DHT22;37713;53.254;6.460;2022-09-09T00:12:12;14.30;99.90
51637;DHT22;37713;53.254;6.460;2022-09-09T00:17:37;14.10;99.90
51637;DHT22;37713;53.254;6.460;2022-09-09T00:20:30;14.00;99.90
51637;DHT22;37713;53.254;6.460;2022-09-09T00:23:04;14.10;99.90
51637;DHT22;37713;53.254;6.460;2022-09-09T00:25:58;13.90;99.90
51637;DHT22;37713;53.254;6.460;2022-09-09T00:28:26;13.90;99.90
51637;DHT22;37713;53.254;6.460;2022-09-09T00:30:53;13.90;99.90
51637;DHT22;37713;53.254;6.460;2022-09-09T00:33:23;13.90;99.90
51637;DHT22;37713;53.254;6.460;2022-09-09T00:35:55;14.00;99.90
51637;DHT22;37713;53.254;6.460;2022-09-09T00:38:24;13.90;99.90
51637;DHT22;37713;53.254;6.460;2022-09-09T00:40:55;13.90;99.90
51637;DHT22;37713;53.254;6.460;2022-09-09T00:43:31;13.90;99.90
51637;DHT22;37713;53.254;6.460;2022-09-09T00:51:58;13.70;99.90
51637;DHT22;37713;53.254;6.460;2022-09-09T00:54:44;13.60;99.90
51637;DHT22;37713;53.254;6.460;2022-09-09T00:57:26;13.60;99.90
51637;DHT22;37713;53.254;6.460;2022-09-09T01:05:59;13.40;99.90
51637;DHT22;37713;53.254;6.460;2022-09-09T01:14:21;13.50;99.90
51637;DHT22;37713;53.254;6.460;2022-09-09T01:16:52;13.60;99.90
51637;DHT22;37713;53.254;6.460;2022-09-09T01:28:08;13.30;99.90
51637;DHT22;37713;53.254;6.460;2022-09-09T01:30:39;13.20;99.90
51637;DHT22;37713;53.254;6.460;2022-09-09T01:33:12;13.40;99.90
51637;DHT22;37713;53.254;6.460;2022-09-09T01:38:17;13.30;99.90
51637;DHT22;37713;53.254;6.460;2022-09-09T01:40:43;13.20;99.90
51637;DHT22;37713;53.254;6.460;2022-09-09T01:43:09;13.30;99.90
51637;DHT22;37713;53.254;6.460;2022-09-09T01:45:37;13.20;99.90
51637;DHT22;37713;53.254;6.460;2022-09-09T01:48:03;13.40;99.90
51637;DHT22;37713;53.254;6.460;2022-09-09T01:50:29;13.30;99.90
51637;DHT22;37713;53.254;6.460;2022-09-09T01:52:59;13.30;99.90
51637;DHT22;37713;53.254;6.460;2022-09-09T01:55:37;13.30;99.90
51637;DHT22;37713;53.254;6.460;2022-09-09T02:00:34;13.10;99.90
51637;DHT22;37713;53.254;6.460;2022-09-09T02:03:06;13.10;99.90
51637;DHT22;37713;53.254;6.460;2022-09-09T02:05:39;13.10;99.90
51637;DHT22;37713;53.254;6.460;2022-09-09T02:08:20;13.10;99.90
51637;DHT22;37713;53.254;6.460;2022-09-09T02:10:56;13.10;99.90
51637;DHT22;37713;53.254;6.460;2022-09-09T02:13:24;13.10;99.90
51637;DHT22;37713;53.254;6.460;2022-09-09T02:18:31;13.10;99.90
51637;DHT22;37713;53.254;6.460;2022-09-09T02:20:58;13.10;99.90
51637;DHT22;37713;53.254;6.460;2022-09-09T02:23:25;13.20;99.90
51637;DHT22;37713;53.254;6.460;2022-09-09T02:25:51;13.20;99.90
51637;DHT22;37713;53.254;6.460;2022-09-09T02:28:21;13.30;99.90
51637;DHT22;37713;53.254;6.460;2022-09-09T02:30:50;13.20;99.90
51637;DHT22;37713;53.254;6.460;2022-09-09T02:33:25;13.20;99.90
51637;DHT22;37713;53.254;6.460;2022-09-09T02:35:52;13.40;99.90
51637;DHT22;37713;53.254;6.460;2022-09-09T02:38:20;13.50;99.90
51637;DHT22;37713;53.254;6.460;2022-09-09T02:40:47;13.50;99.90
51637;DHT22;37713;53.254;6.460;2022-09-09T02:43:14;13.50;99.90
51637;DHT22;37713;53.254;6.460;2022-09-09T02:46:00;13.30;99.90
51637;DHT22;37713;53.254;6.460;2022-09-09T02:48:52;13.60;99.90
51637;DHT22;37713;53.254;6.460;2022-09-09T02:51:53;13.40;99.90
51637;DHT22;37713;53.254;6.460;2022-09-09T02:54:28;13.50;99.90
51637;DHT22;37713;53.254;6.460;2022-09-09T02:57:21;13.60;99.90
51637;DHT22;37713;53.254;6.460;2022-09-09T02:59:44;13.70;99.90
51637;DHT22;37713;53.254;6.460;2022-09-09T03:02:11;13.60;99.90
51637;DHT22;37713;53.254;6.460;2022-09-09T03:04:38;13.70;99.90
51637;DHT22;37713;53.254;6.460;2022-09-09T03:07:05;13.70;99.90
51637;DHT22;37713;53.254;6.460;2022-09-09T03:09:31;13.60;99.90
51637;DHT22;37713;53.254;6.460;2022-09-09T03:11:58;13.60;99.90
51637;DHT22;37713;53.254;6.460;2022-09-09T03:14:24;13.70;99.90
51637;DHT22;37713;53.254;6.460;2022-09-09T03:16:51;13.70;99.90
51637;DHT22;37713;53.254;6.460;2022-09-09T03:19:17;13.80;99.90
51637;DHT22;37713;53.254;6.460;2022-09-09T03:21:45;13.70;99.90
51637;DHT22;37713;53.254;6.460;2022-09-09T03:24:11;13.70;99.90
51637;DHT22;37713;53.254;6.460;2022-09-09T03:26:37;13.90;99.90
51637;DHT22;37713;53.254;6.460;2022-09-09T03:29:04;13.80;99.90
51637;DHT22;37713;53.254;6.460;2022-09-09T03:31:32;13.80;99.90
51637;DHT22;37713;53.254;6.460;2022-09-09T03:33:58;13.90;99.90
51637;DHT22;37713;53.254;6.460;2022-09-09T03:36:25;13.80;99.90
51637;DHT22;37713;53.254;6.460;2022-09-09T03:38:52;13.80;99.90
51637;DHT22;37713;53.254;6.460;2022-09-09T03:41:20;13.80;99.90
51637;DHT22;37713;53.254;6.460;2022-09-09T03:43:52;13.90;99.90
51637;DHT22;37713;53.254;6.460;2022-09-09T03:46:23;13.80;99.90
51637;DHT22;37713;53.254;6.460;2022-09-09T03:48:49;13.80;99.90
51637;DHT22;37713;53.254;6.460;2022-09-09T03:51:15;13.90;99.90
51637;DHT22;37713;53.254;6.460;2022-09-09T03:53:42;13.90;99.90
51637;DHT22;37713;53.254;6.460;2022-09-09T03:56:08;13.80;99.90
51637;DHT22;37713;53.254;6.460;2022-09-09T03:58:35;13.90;99.90
51637;DHT22;37713;53.254;6.460;2022-09-09T04:01:12;13.90;99.90
51637;DHT22;37713;53.254;6.460;2022-09-09T04:03:43;13.80;99.90
51637;DHT22;37713;53.254;6.460;2022-09-09T04:06:11;13.90;99.90
51637;DHT22;37713;53.254;6.460;2022-09-09T04:08:39;13.90;99.90
51637;DHT22;37713;53.254;6.460;2022-09-09T04:11:05;13.80;99.90
51637;DHT22;37713;53.254;6.460;2022-09-09T04:13:34;13.90;99.90
51637;DHT22;37713;53.254;6.460;2022-09-09T04:16:01;14.00;99.90
51637;DHT22;37713;53.254;6.460;2022-09-09T04:18:27;14.00;99.90
51637;DHT22;37713;53.254;6.460;2022-09-09T04:20:57;13.90;99.90
51637;DHT22;37713;53.254;6.460;2022-09-09T04:23:24;14.00;99.90
51637;DHT22;37713;53.254;6.460;2022-09-09T04:25:54;14.10;99.90
51637;DHT22;37713;53.254;6.460;2022-09-09T04:28:22;14.00;99.90
51637;DHT22;37713;53.254;6.460;2022-09-09T04:30:48;14.00;99.90
51637;DHT22;37713;53.254;6.460;2022-09-09T04:33:14;14.10;99.90
51637;DHT22;37713;53.254;6.460;2022-09-09T04:35:45;14.10;99.90
51637;DHT22;37713;53.254;6.460;2022-09-09T04:38:12;14.10;99.90
51637;DHT22;37713;53.254;6.460;2022-09-09T04:40:39;14.10;99.90
51637;DHT22;37713;53.254;6.460;2022-09-09T04:43:09;14.10;99.90
51637;DHT22;37713;53.254;6.460;2022-09-09T04:45:35;14.20;99.90
51637;DHT22;37713;53.254;6.460;2022-09-09T04:48:01;14.00;99.90
51637;DHT22;37713;53.254;6.460;2022-09-09T04:50:28;14.00;99.90
51637;DHT22;37713;53.254;6.460;2022-09-09T04:52:54;14.00;99.90
51637;DHT22;37713;53.254;6.460;2022-09-09T04:55:19;14.00;99.90
51637;DHT22;37713;53.254;6.460;2022-09-09T04:57:45;14.00;99.90
51637;DHT22;37713;53.254;6.460;2022-09-09T05:00:11;14.00;99.90
51637;DHT22;37713;53.254;6.460;2022-09-09T05:02:38;14.20;99.90
51637;DHT22;37713;53.254;6.460;2022-09-09T05:05:05;14.10;99.90
51637;DHT22;37713;53.254;6.460;2022-09-09T05:07:31;14.10;99.90
51637;DHT22;37713;53.254;6.460;2022-09-09T05:09:57;14.10;99.90
51637;DHT22;37713;53.254;6.460;2022-09-09T05:12:23;14.10;99.90
51637;DHT22;37713;53.254;6.460;2022-09-09T05:14:51;14.10;99.90
51637;DHT22;37713;53.254;6.460;2022-09-09T05:17:17;14.20;99.90
51637;DHT22;37713;53.254;6.460;2022-09-09T05:19:43;14.30;99.90
51637;DHT22;37713;53.254;6.460;2022-09-09T05:22:10;14.30;99.90
51637;DHT22;37713;53.254;6.460;2022-09-09T05:24:37;14.30;99.90
51637;DHT22;37713;53.254;6.460;2022-09-09T05:27:04;14.30;99.90
51637;DHT22;37713;53.254;6.460;2022-09-09T05:29:32;14.30;99.90
51637;DHT22;37713;53.254;6.460;2022-09-09T05:31:59;14.20;99.90
51637;DHT22;37713;53.254;6.460;2022-09-09T05:34:25;14.20;99.90
51637;DHT22;37713;53.254;6.460;2022-09-09T05:36:51;14.40;99.90
51637;DHT22;37713;53.254;6.460;2022-09-09T05:39:17;14.20;99.90
51637;DHT22;37713;53.254;6.460;2022-09-09T05:41:44;14.30;99.90
51637;DHT22;37713;53.254;6.460;2022-09-09T05:44:09;14.30;99.90
51637;DHT22;37713;53.254;6.460;2022-09-09T05:46:35;14.30;99.90
51637;DHT22;37713;53.254;6.460;2022-09-09T05:49:02;14.20;99.90
51637;DHT22;37713;53.254;6.460;2022-09-09T05:51:28;14.40;99.90
51637;DHT22;37713;53.254;6.460;2022-09-09T05:53:55;14.40;99.90
51637;DHT22;37713;53.254;6.460;2022-09-09T05:56:25;14.30;99.90
51637;DHT22;37713;53.254;6.460;2022-09-09T05:58:52;14.30;99.90
51637;DHT22;37713;53.254;6.460;2022-09-09T06:01:20;14.40;99.90
51637;DHT22;37713;53.254;6.460;2022-09-09T06:03:47;14.40;99.90
51637;DHT22;37713;53.254;6.460;2022-09-09T06:06:19;14.40;99.90
51637;DHT22;37713;53.254;6.460;2022-09-09T06:08:50;14.30;99.90
51637;DHT22;37713;53.254;6.460;2022-09-09T06:11:18;14.40;99.90
51637;DHT22;37713;53.254;6.460;2022-09-09T06:13:45;14.50;99.90
51637;DHT22;37713;53.254;6.460;2022-09-09T06:16:13;14.50;99.90
51637;DHT22;37713;53.254;6.460;2022-09-09T06:18:40;14.60;99.90
51637;DHT22;37713;53.254;6.460;2022-09-09T06:21:09;14.50;99.90
51637;DHT22;37713;53.254;6.460;2022-09-09T06:23:36;14.60;99.90
51637;DHT22;37713;53.254;6.460;2022-09-09T06:26:10;14.60;99.90
51637;DHT22;37713;53.254;6.460;2022-09-09T06:28:37;14.70;99.90
51637;DHT22;37713;53.254;6.460;2022-09-09T06:31:06;14.90;99.90
51637;DHT22;37713;53.254;6.460;2022-09-09T06:33:33;15.00;99.90
51637;DHT22;37713;53.254;6.460;2022-09-09T06:36:05;14.90;99.90
51637;DHT22;37713;53.254;6.460;2022-09-09T06:38:31;15.10;99.90
51637;DHT22;37713;53.254;6.460;2022-09-09T06:40:58;15.20;99.90
51637;DHT22;37713;53.254;6.460;2022-09-09T06:43:25;15.20;99.90
51637;DHT22;37713;53.254;6.460;2022-09-09T06:45:55;15.20;99.90
51637;DHT22;37713;53.254;6.460;2022-09-09T06:48:21;15.30;99.90
51637;DHT22;37713;53.254;6.460;2022-09-09T06:50:46;15.50;99.90
51637;DHT22;37713;53.254;6.460;2022-09-09T06:53:12;15.50;99.90
51637;DHT22;37713;53.254;6.460;2022-09-09T06:55:41;15.60;99.90
51637;DHT22;37713;53.254;6.460;2022-09-09T06:58:09;15.90;99.90
51637;DHT22;37713;53.254;6.460;2022-09-09T07:00:35;16.00;99.90
51637;DHT22;37713;53.254;6.460;2022-09-09T07:03:03;16.20;99.90
51637;DHT22;37713;53.254;6.460;2022-09-09T07:05:29;16.40;99.90
51637;DHT22;37713;53.254;6.460;2022-09-09T07:07:54;16.60;99.90
51637;DHT22;37713;53.254;6.460;2022-09-09T07:10:20;16.50;99.90
51637;DHT22;37713;53.254;6.460;2022-09-09T07:12:51;16.60;99.90
51637;DHT22;37713;53.254;6.460;2022-09-09T07:15:17;16.50;99.90
51637;DHT22;37713;53.254;6.460;2022-09-09T07:17:44;16.30;99.90
51637;DHT22;37713;53.254;6.460;2022-09-09T07:20:10;16.30;99.90
51637;DHT22;37713;53.254;6.460;2022-09-09T07:22:36;16.30;99.90
51637;DHT22;37713;53.254;6.460;2022-09-09T07:25:03;16.10;99.90
51637;DHT22;37713;53.254;6.460;2022-09-09T07:27:29;16.10;99.90
51637;DHT22;37713;53.254;6.460;2022-09-09T07:29:55;16.10;99.90
51637;DHT22;37713;53.254;6.460;2022-09-09T07:32:22;16.00;99.90
51637;DHT22;37713;53.254;6.460;2022-09-09T07:34:48;16.10;99.90
51637;DHT22;37713;53.254;6.460;2022-09-09T07:37:15;16.10;99.90
51637;DHT22;37713;53.254;6.460;2022-09-09T07:39:41;16.10;99.90
51637;DHT22;37713;53.254;6.460;2022-09-09T07:42:07;16.10;99.90
51637;DHT22;37713;53.254;6.460;2022-09-09T07:44:37;16.10;99.90
51637;DHT22;37713;53.254;6.460;2022-09-09T07:47:05;16.10;99.90
51637;DHT22;37713;53.254;6.460;2022-09-09T07:49:31;16.10;99.90
51637;DHT22;37713;53.254;6.460;2022-09-09T07:51:57;16.20;99.90
51637;DHT22;37713;53.254;6.460;2022-09-09T07:54:23;16.40;99.90
51637;DHT22;37713;53.254;6.460;2022-09-09T07:56:51;16.50;99.90
51637;DHT22;37713;53.254;6.460;2022-09-09T07:59:18;16.50;99.90
51637;DHT22;37713;53.254;6.460;2022-09-09T08:01:50;16.70;99.90
51637;DHT22;37713;53.254;6.460;2022-09-09T08:04:20;16.70;99.90
51637;DHT22;37713;53.254;6.460;2022-09-09T08:06:53;16.70;99.90
51637;DHT22;37713;53.254;6.460;2022-09-09T08:09:20;16.80;99.90
51637;DHT22;37713;53.254;6.460;2022-09-09T08:11:46;16.70;99.90
51637;DHT22;37713;53.254;6.460;2022-09-09T08:14:12;16.80;99.90
51637;DHT22;37713;53.254;6.460;2022-09-09T08:16:48;16.90;99.90
51637;DHT22;37713;53.254;6.460;2022-09-09T08:19:14;16.90;99.90
51637;DHT22;37713;53.254;6.460;2022-09-09T08:21:41;16.90;99.90
51637;DHT22;37713;53.254;6.460;2022-09-09T08:24:08;17.00;99.90
51637;DHT22;37713;53.254;6.460;2022-09-09T08:26:45;17.10;99.90
51637;DHT22;37713;53.254;6.460;2022-09-09T08:29:13;17.10;99.90
51637;DHT22;37713;53.254;6.460;2022-09-09T08:34:12;17.20;99.90
51637;DHT22;37713;53.254;6.460;2022-09-09T08:36:44;17.30;99.90
51637;DHT22;37713;53.254;6.460;2022-09-09T08:39:12;17.30;99.90
51637;DHT22;37713;53.254;6.460;2022-09-09T08:53:00;17.60;99.90
51637;DHT22;37713;53.254;6.460;2022-09-09T08:58:23;17.80;99.90
51637;DHT22;37713;53.254;6.460;2022-09-09T09:11:40;17.90;99.90
51637;DHT22;37713;53.254;6.460;2022-09-09T09:14:20;17.80;99.90
51637;DHT22;37713;53.254;6.460;2022-09-09T09:17:12;17.90;99.90
51637;DHT22;37713;53.254;6.460;2022-09-09T09:19:40;17.90;99.90
51637;DHT22;37713;53.254;6.460;2022-09-09T09:27:39;17.90;99.90
51637;DHT22;37713;53.254;6.460;2022-09-09T09:30:17;17.90;99.90
51637;DHT22;37713;53.254;6.460;2022-09-09T09:32:57;18.00;99.90
51637;DHT22;37713;53.254;6.460;2022-09-09T09:35:23;18.10;99.90
51637;DHT22;37713;53.254;6.460;2022-09-09T09:37:49;18.20;99.90
51637;DHT22;37713;53.254;6.460;2022-09-09T09:40:17;18.20;99.90
51637;DHT22;37713;53.254;6.460;2022-09-09T09:45:43;18.50;99.90
51637;DHT22;37713;53.254;6.460;2022-09-09T09:48:12;18.70;99.90
51637;DHT22;37713;53.254;6.460;2022-09-09T09:53:30;18.70;99.90
51637;DHT22;37713;53.254;6.460;2022-09-09T09:56:08;18.90;99.90
51637;DHT22;37713;53.254;6.460;2022-09-09T09:58:54;19.00;99.90
51637;DHT22;37713;53.254;6.460;2022-09-09T10:01:31;19.10;99.90
51637;DHT22;37713;53.254;6.460;2022-09-09T10:04:14;19.10;99.90
51637;DHT22;37713;53.254;6.460;2022-09-09T10:06:41;19.30;99.90
51637;DHT22;37713;53.254;6.460;2022-09-09T10:40:33;19.90;99.90
51637;DHT22;37713;53.254;6.460;2022-09-09T10:51:45;19.80;99.90
51637;DHT22;37713;53.254;6.460;2022-09-09T10:59:56;20.10;99.90
51637;DHT22;37713;53.254;6.460;2022-09-09T11:02:29;20.30;99.90
51637;DHT22;37713;53.254;6.460;2022-09-09T11:05:16;20.20;99.90
51637;DHT22;37713;53.254;6.460;2022-09-09T11:08:38;20.20;99.90
51637;DHT22;37713;53.254;6.460;2022-09-09T11:11:03;20.20;99.90
51637;DHT22;37713;53.254;6.460;2022-09-09T11:16:34;20.10;99.90
51637;DHT22;37713;53.254;6.460;2022-09-09T11:21:53;20.10;99.90
51637;DHT22;37713;53.254;6.460;2022-09-09T11:24:33;20.10;99.90
51637;DHT22;37713;53.254;6.460;2022-09-09T11:38:41;20.60;99.90
51637;DHT22;37713;53.254;6.460;2022-09-09T11:41:10;20.60;99.90
51637;DHT22;37713;53.254;6.460;2022-09-09T11:43:47;20.70;99.90
51637;DHT22;37713;53.254;6.460;2022-09-09T11:46:17;20.90;99.90
51637;DHT22;37713;53.254;6.460;2022-09-09T11:48:57;21.00;99.90
51637;DHT22;37713;53.254;6.460;2022-09-09T11:51:31;21.10;99.90
51637;DHT22;37713;53.254;6.460;2022-09-09T11:56:44;21.00;99.90
51637;DHT22;37713;53.254;6.460;2022-09-09T11:59:32;20.80;99.90
51637;DHT22;37713;53.254;6.460;2022-09-09T12:02:24;20.80;99.90
51637;DHT22;37713;53.254;6.460;2022-09-09T12:09:59;20.90;99.90
51637;DHT22;37713;53.254;6.460;2022-09-09T12:12:35;21.00;99.90
51637;DHT22;37713;53.254;6.460;2022-09-09T12:17:49;21.10;99.90
51637;DHT22;37713;53.254;6.460;2022-09-09T12:20:36;21.10;99.90
51637;DHT22;37713;53.254;6.460;2022-09-09T12:23:30;21.10;99.90
51637;DHT22;37713;53.254;6.460;2022-09-09T12:26:00;21.10;99.90
51637;DHT22;37713;53.254;6.460;2022-09-09T12:37:31;21.20;99.90
51637;DHT22;37713;53.254;6.460;2022-09-09T12:40:00;21.20;99.90
51637;DHT22;37713;53.254;6.460;2022-09-09T12:42:28;21.10;99.90
51637;DHT22;37713;53.254;6.460;2022-09-09T12:44:59;21.10;99.90
51637;DHT22;37713;53.254;6.460;2022-09-09T12:47:40;21.00;99.90
51637;DHT22;37713;53.254;6.460;2022-09-09T12:50:21;21.00;99.90
51637;DHT22;37713;53.254;6.460;2022-09-09T12:52:50;21.10;99.90
51637;DHT22;37713;53.254;6.460;2022-09-09T12:55:27;21.20;99.90
51637;DHT22;37713;53.254;6.460;2022-09-09T12:57:53;21.20;99.90
51637;DHT22;37713;53.254;6.460;2022-09-09T13:00:21;21.20;99.90
51637;DHT22;37713;53.254;6.460;2022-09-09T13:02:52;21.30;99.90
51637;DHT22;37713;53.254;6.460;2022-09-09T13:05:22;21.40;99.90
51637;DHT22;37713;53.254;6.460;2022-09-09T13:07:48;21.50;99.90
51637;DHT22;37713;53.254;6.460;2022-09-09T13:10:24;21.60;99.90
51637;DHT22;37713;53.254;6.460;2022-09-09T13:12:52;21.80;99.90
51637;DHT22;37713;53.254;6.460;2022-09-09T13:15:26;21.90;99.90
51637;DHT22;37713;53.254;6.460;2022-09-09T13:17:59;21.90;99.90
51637;DHT22;37713;53.254;6.460;2022-09-09T13:20:26;22.00;99.90
51637;DHT22;37713;53.254;6.460;2022-09-09T13:22:53;22.00;99.90
51637;DHT22;37713;53.254;6.460;2022-09-09T13:25:23;22.00;99.90
51637;DHT22;37713;53.254;6.460;2022-09-09T13:28:20;21.90;99.90
51637;DHT22;37713;53.254;6.460;2022-09-09T13:31:05;21.90;99.90
51637;DHT22;37713;53.254;6.460;2022-09-09T13:33:44;21.90;99.90
51637;DHT22;37713;53.254;6.460;2022-09-09T13:36:11;21.80;99.90
51637;DHT22;37713;53.254;6.460;2022-09-09T13:41:08;21.50;99.90
51637;DHT22;37713;53.254;6.460;2022-09-09T13:43:38;21.50;99.90
51637;DHT22;37713;53.254;6.460;2022-09-09T13:46:33;21.40;99.90
51637;DHT22;37713;53.254;6.460;2022-09-09T13:49:19;21.30;99.90
51637;DHT22;37713;53.254;6.460;2022-09-09T13:51:49;21.30;99.90
51637;DHT22;37713;53.254;6.460;2022-09-09T13:54:18;21.30;99.90
51637;DHT22;37713;53.254;6.460;2022-09-09T13:56:45;21.30;99.90
51637;DHT22;37713;53.254;6.460;2022-09-09T13:59:13;21.20;99.90
51637;DHT22;37713;53.254;6.460;2022-09-09T14:01:39;21.00;99.90
51637;DHT22;37713;53.254;6.460;2022-09-09T14:04:06;20.80;99.90
51637;DHT22;37713;53.254;6.460;2022-09-09T14:06:36;20.60;99.90
51637;DHT22;37713;53.254;6.460;2022-09-09T14:09:06;20.50;99.90
51637;DHT22;37713;53.254;6.460;2022-09-09T14:11:32;20.70;99.90
51637;DHT22;37713;53.254;6.460;2022-09-09T14:13:58;21.00;99.90
51637;DHT22;37713;53.254;6.460;2022-09-09T14:16:23;21.30;99.90
51637;DHT22;37713;53.254;6.460;2022-09-09T14:18:49;21.50;99.90
51637;DHT22;37713;53.254;6.460;2022-09-09T14:21:16;21.70;99.90
51637;DHT22;37713;53.254;6.460;2022-09-09T14:23:41;21.70;99.90
51637;DHT22;37713;53.254;6.460;2022-09-09T14:26:08;21.70;99.90
51637;DHT22;37713;53.254;6.460;2022-09-09T14:28:35;21.50;99.90
51637;DHT22;37713;53.254;6.460;2022-09-09T14:31:02;21.30;99.90
51637;DHT22;37713;53.254;6.460;2022-09-09T14:33:29;21.10;99.90
51637;DHT22;37713;53.254;6.460;2022-09-09T14:36:03;20.90;99.90
51637;DHT22;37713;53.254;6.460;2022-09-09T14:38:30;20.80;99.90
51637;DHT22;37713;53.254;6.460;2022-09-09T14:40:56;20.60;99.90
51637;DHT22;37713;53.254;6.460;2022-09-09T14:43:24;20.60;99.90
51637;DHT22;37713;53.254;6.460;2022-09-09T14:45:49;20.40;99.90
51637;DHT22;37713;53.254;6.460;2022-09-09T14:48:17;20.20;99.90
51637;DHT22;37713;53.254;6.460;2022-09-09T14:50:43;20.10;99.90
51637;DHT22;37713;53.254;6.460;2022-09-09T14:53:09;19.90;99.90
51637;DHT22;37713;53.254;6.460;2022-09-09T14:55:36;19.80;99.90
51637;DHT22;37713;53.254;6.460;2022-09-09T14:58:03;19.70;99.90
51637;DHT22;37713;53.254;6.460;2022-09-09T15:00:29;19.70;99.90
51637;DHT22;37713;53.254;6.460;2022-09-09T15:02:55;19.70;99.90
51637;DHT22;37713;53.254;6.460;2022-09-09T15:05:21;19.60;99.90
51637;DHT22;37713;53.254;6.460;2022-09-09T15:07:47;19.70;99.90
51637;DHT22;37713;53.254;6.460;2022-09-09T15:10:16;19.70;99.90
51637;DHT22;37713;53.254;6.460;2022-09-09T15:12:43;19.80;99.90
51637;DHT22;37713;53.254;6.460;2022-09-09T15:15:09;19.80;99.90
51637;DHT22;37713;53.254;6.460;2022-09-09T15:17:35;19.90;99.90
51637;DHT22;37713;53.254;6.460;2022-09-09T15:20:03;20.00;99.90
51637;DHT22;37713;53.254;6.460;2022-09-09T15:22:29;20.20;99.90
51637;DHT22;37713;53.254;6.460;2022-09-09T15:24:54;20.40;99.90
51637;DHT22;37713;53.254;6.460;2022-09-09T15:27:20;20.60;99.90
51637;DHT22;37713;53.254;6.460;2022-09-09T15:29:46;20.60;99.90
51637;DHT22;37713;53.254;6.460;2022-09-09T15:32:12;20.70;99.90
51637;DHT22;37713;53.254;6.460;2022-09-09T15:34:38;20.90;99.90
51637;DHT22;37713;53.254;6.460;2022-09-09T15:37:04;20.90;99.90
51637;DHT22;37713;53.254;6.460;2022-09-09T15:39:30;20.80;99.90
51637;DHT22;37713;53.254;6.460;2022-09-09T15:41:56;20.70;99.90
51637;DHT22;37713;53.254;6.460;2022-09-09T15:44:22;20.60;99.90
51637;DHT22;37713;53.254;6.460;2022-09-09T15:46:52;20.50;99.90
51637;DHT22;37713;53.254;6.460;2022-09-09T15:49:25;20.50;99.90
51637;DHT22;37713;53.254;6.460;2022-09-09T15:51:56;20.50;99.90
51637;DHT22;37713;53.254;6.460;2022-09-09T15:54:24;20.50;99.90
51637;DHT22;37713;53.254;6.460;2022-09-09T15:57:02;20.40;99.90
51637;DHT22;37713;53.254;6.460;2022-09-09T15:59:30;20.40;99.90
51637;DHT22;37713;53.254;6.460;2022-09-09T16:01:57;20.30;99.90
51637;DHT22;37713;53.254;6.460;2022-09-09T16:04:26;20.20;99.90
51637;DHT22;37713;53.254;6.460;2022-09-09T16:06:53;20.10;99.90
51637;DHT22;37713;53.254;6.460;2022-09-09T16:09:20;20.00;99.90
51637;DHT22;37713;53.254;6.460;2022-09-09T16:11:46;19.90;99.90
51637;DHT22;37713;53.254;6.460;2022-09-09T16:14:13;19.80;99.90
51637;DHT22;37713;53.254;6.460;2022-09-09T16:16:40;19.70;99.90
51637;DHT22;37713;53.254;6.460;2022-09-09T16:19:09;19.70;99.90
51637;DHT22;37713;53.254;6.460;2022-09-09T16:21:41;19.60;99.90
51637;DHT22;37713;53.254;6.460;2022-09-09T16:24:09;19.50;99.90
51637;DHT22;37713;53.254;6.460;2022-09-09T16:26:37;19.30;99.90
51637;DHT22;37713;53.254;6.460;2022-09-09T16:29:03;19.20;99.90
51637;DHT22;37713;53.254;6.460;2022-09-09T16:31:30;19.10;99.90
51637;DHT22;37713;53.254;6.460;2022-09-09T16:33:57;19.00;99.90
51637;DHT22;37713;53.254;6.460;2022-09-09T16:36:25;18.90;99.90
51637;DHT22;37713;53.254;6.460;2022-09-09T16:38:53;18.80;99.90
51637;DHT22;37713;53.254;6.460;2022-09-09T16:41:20;18.70;99.90
51637;DHT22;37713;53.254;6.460;2022-09-09T16:43:47;18.60;99.90
51637;DHT22;37713;53.254;6.460;2022-09-09T16:46:17;18.50;99.90
51637;DHT22;37713;53.254;6.460;2022-09-09T16:48:46;18.50;99.90
51637;DHT22;37713;53.254;6.460;2022-09-09T16:51:26;18.40;99.90
51637;DHT22;37713;53.254;6.460;2022-09-09T16:53:53;18.30;99.90
51637;DHT22;37713;53.254;6.460;2022-09-09T16:56:25;18.20;99.90
51637;DHT22;37713;53.254;6.460;2022-09-09T16:58:57;18.10;99.90
51637;DHT22;37713;53.254;6.460;2022-09-09T17:01:28;18.10;99.90
51637;DHT22;37713;53.254;6.460;2022-09-09T17:03:54;18.00;99.90
51637;DHT22;37713;53.254;6.460;2022-09-09T17:06:21;18.00;99.90
51637;DHT22;37713;53.254;6.460;2022-09-09T17:08:47;17.90;99.90
51637;DHT22;37713;53.254;6.460;2022-09-09T17:11:18;17.90;99.90
51637;DHT22;37713;53.254;6.460;2022-09-09T17:13:45;17.90;99.90
51637;DHT22;37713;53.254;6.460;2022-09-09T17:16:13;17.90;99.90
51637;DHT22;37713;53.254;6.460;2022-09-09T17:18:40;17.90;99.90
51637;DHT22;37713;53.254;6.460;2022-09-09T17:21:08;17.90;99.90
51637;DHT22;37713;53.254;6.460;2022-09-09T17:23:35;17.90;99.90
51637;DHT22;37713;53.254;6.460;2022-09-09T17:26:07;17.80;99.90
51637;DHT22;37713;53.254;6.460;2022-09-09T17:28:34;17.80;99.90
51637;DHT22;37713;53.254;6.460;2022-09-09T17:31:01;17.70;99.90
51637;DHT22;37713;53.254;6.460;2022-09-09T17:33:30;17.70;99.90
51637;DHT22;37713;53.254;6.460;2022-09-09T17:36:01;17.70;99.90
51637;DHT22;37713;53.254;6.460;2022-09-09T17:38:28;17.70;99.90
51637;DHT22;37713;53.254;6.460;2022-09-09T17:41:02;17.60;99.90
51637;DHT22;37713;53.254;6.460;2022-09-09T17:43:28;17.60;99.90
51637;DHT22;37713;53.254;6.460;2022-09-09T17:45:54;17.60;99.90
51637;DHT22;37713;53.254;6.460;2022-09-09T17:48:19;17.60;99.90
51637;DHT22;37713;53.254;6.460;2022-09-09T17:50:45;17.60;99.90
51637;DHT22;37713;53.254;6.460;2022-09-09T17:53:11;17.50;99.90
51637;DHT22;37713;53.254;6.460;2022-09-09T17:55:37;17.50;99.90
51637;DHT22;37713;53.254;6.460;2022-09-09T17:58:03;17.50;99.90
51637;DHT22;37713;53.254;6.460;2022-09-09T18:00:29;17.40;99.90
51637;DHT22;37713;53.254;6.460;2022-09-09T18:02:55;17.40;99.90
51637;DHT22;37713;53.254;6.460;2022-09-09T18:05:21;17.40;99.90
51637;DHT22;37713;53.254;6.460;2022-09-09T18:07:47;17.40;99.90
51637;DHT22;37713;53.254;6.460;2022-09-09T18:10:13;17.30;99.90
51637;DHT22;37713;53.254;6.460;2022-09-09T18:12:39;17.30;99.90
51637;DHT22;37713;53.254;6.460;2022-09-09T18:15:05;17.30;99.90
51637;DHT22;37713;53.254;6.460;2022-09-09T18:17:31;17.30;99.90
51637;DHT22;37713;53.254;6.460;2022-09-09T18:19:57;17.30;99.90
51637;DHT22;37713;53.254;6.460;2022-09-09T18:22:23;17.20;99.90
51637;DHT22;37713;53.254;6.460;2022-09-09T18:24:48;17.20;99.90
51637;DHT22;37713;53.254;6.460;2022-09-09T18:27:14;17.20;99.90